sensor_id;sensor_type;location;lat;lon;timestamp;P1;durP1;ratioP1;P2;durP2;ratioP2
41101;SDS011;26845;50.190;19.178;2022-12-07T00:01:21;17.50;;;9.95;;
41101;SDS011;26845;50.190;19.178;2022-12-07T00:03:51;14.23;;;9.25;;
41101;SDS011;26845;50.190;19.178;2022-12-07T00:06:21;16.42;;;9.30;;
41101;SDS011;26845;50.190;19.178;2022-12-07T00:08:47;15.05;;;10.38;;
41101;SDS011;26845;50.190;19.178;2022-12-07T00:11:14;13.40;;;9.00;;
41101;SDS011;26845;50.190;19.178;2022-12-07T00:13:44;15.78;;;9.60;;
41101;SDS011;26845;50.190;19.178;2022-12-07T00:16:18;15.45;;;9.58;;
41101;SDS011;26845;50.190;19.178;2022-12-07T00:18:44;14.20;;;10.05;;
41101;SDS011;26845;50.190;19.178;2022-12-07T00:21:11;17.60;;;10.13;;
41101;SDS011;26845;50.190;19.178;2022-12-07T00:23:44;15.08;;;9.58;;
41101;SDS011;26845;50.190;19.178;2022-12-07T00:26:13;14.78;;;9.85;;
41101;SDS011;26845;50.190;19.178;2022-12-07T00:28:46;15.80;;;10.20;;
41101;SDS011;26845;50.190;19.178;2022-12-07T00:31:16;14.90;;;10.35;;
41101;SDS011;26845;50.190;19.178;2022-12-07T00:33:44;18.02;;;10.30;;
41101;SDS011;26845;50.190;19.178;2022-12-07T00:36:13;16.52;;;10.50;;
41101;SDS011;26845;50.190;19.178;2022-12-07T00:38:41;18.00;;;10.18;;
41101;SDS011;26845;50.190;19.178;2022-12-07T00:43:40;16.10;;;10.75;;
41101;SDS011;26845;50.190;19.178;2022-12-07T00:46:08;20.50;;;11.30;;
41101;SDS011;26845;50.190;19.178;2022-12-07T00:48:34;14.93;;;10.05;;
41101;SDS011;26845;50.190;19.178;2022-12-07T00:51:00;19.30;;;11.43;;
41101;SDS011;26845;50.190;19.178;2022-12-07T00:53:27;17.75;;;11.93;;
41101;SDS011;26845;50.190;19.178;2022-12-07T00:55:54;20.95;;;12.35;;
41101;SDS011;26845;50.190;19.178;2022-12-07T00:58:21;17.42;;;11.30;;
41101;SDS011;26845;50.190;19.178;2022-12-07T01:00:48;18.98;;;12.03;;
41101;SDS011;26845;50.190;19.178;2022-12-07T01:03:16;20.35;;;12.80;;
41101;SDS011;26845;50.190;19.178;2022-12-07T01:05:49;19.32;;;12.40;;
41101;SDS011;26845;50.190;19.178;2022-12-07T01:08:17;17.23;;;11.35;;
41101;SDS011;26845;50.190;19.178;2022-12-07T01:10:42;21.68;;;12.75;;
41101;SDS011;26845;50.190;19.178;2022-12-07T01:13:08;20.48;;;12.88;;
41101;SDS011;26845;50.190;19.178;2022-12-07T01:15:34;22.00;;;13.45;;
41101;SDS011;26845;50.190;19.178;2022-12-07T01:17:59;21.20;;;12.25;;
41101;SDS011;26845;50.190;19.178;2022-12-07T01:20:25;19.65;;;13.15;;
41101;SDS011;26845;50.190;19.178;2022-12-07T01:22:55;23.57;;;13.38;;
41101;SDS011;26845;50.190;19.178;2022-12-07T01:25:18;18.27;;;13.03;;
41101;SDS011;26845;50.190;19.178;2022-12-07T01:27:44;20.45;;;13.38;;
41101;SDS011;26845;50.190;19.178;2022-12-07T01:30:10;24.02;;;14.53;;
41101;SDS011;26845;50.190;19.178;2022-12-07T01:32:37;20.65;;;13.53;;
41101;SDS011;26845;50.190;19.178;2022-12-07T01:35:03;23.45;;;13.35;;
41101;SDS011;26845;50.190;19.178;2022-12-07T01:37:33;21.02;;;13.45;;
41101;SDS011;26845;50.190;19.178;2022-12-07T01:40:02;18.57;;;12.37;;
41101;SDS011;26845;50.190;19.178;2022-12-07T01:42:30;22.58;;;12.50;;
41101;SDS011;26845;50.190;19.178;2022-12-07T01:48:06;22.85;;;13.05;;
41101;SDS011;26845;50.190;19.178;2022-12-07T01:50:36;21.45;;;13.40;;
41101;SDS011;26845;50.190;19.178;2022-12-07T01:53:08;19.27;;;12.70;;
41101;SDS011;26845;50.190;19.178;2022-12-07T01:55:37;22.82;;;14.47;;
41101;SDS011;26845;50.190;19.178;2022-12-07T01:58:08;23.02;;;13.43;;
41101;SDS011;26845;50.190;19.178;2022-12-07T02:00:38;20.00;;;13.93;;
41101;SDS011;26845;50.190;19.178;2022-12-07T02:05:43;23.75;;;14.43;;
41101;SDS011;26845;50.190;19.178;2022-12-07T02:08:13;24.65;;;15.95;;
41101;SDS011;26845;50.190;19.178;2022-12-07T02:10:40;22.30;;;14.03;;
41101;SDS011;26845;50.190;19.178;2022-12-07T02:13:11;25.15;;;15.50;;
41101;SDS011;26845;50.190;19.178;2022-12-07T02:18:31;29.60;;;17.07;;
41101;SDS011;26845;50.190;19.178;2022-12-07T02:23:55;25.23;;;15.65;;
41101;SDS011;26845;50.190;19.178;2022-12-07T02:35:18;25.32;;;15.38;;
41101;SDS011;26845;50.190;19.178;2022-12-07T02:43:24;30.82;;;17.12;;
41101;SDS011;26845;50.190;19.178;2022-12-07T02:45:56;31.07;;;17.57;;
41101;SDS011;26845;50.190;19.178;2022-12-07T02:48:29;29.37;;;17.62;;
41101;SDS011;26845;50.190;19.178;2022-12-07T02:50:59;27.25;;;17.87;;
41101;SDS011;26845;50.190;19.178;2022-12-07T02:53:38;29.18;;;17.30;;
41101;SDS011;26845;50.190;19.178;2022-12-07T03:08:30;29.55;;;18.80;;
41101;SDS011;26845;50.190;19.178;2022-12-07T03:16:33;29.25;;;18.95;;
41101;SDS011;26845;50.190;19.178;2022-12-07T03:19:18;28.23;;;18.35;;
41101;SDS011;26845;50.190;19.178;2022-12-07T03:21:54;29.67;;;19.07;;
41101;SDS011;26845;50.190;19.178;2022-12-07T03:24:30;29.48;;;18.27;;
41101;SDS011;26845;50.190;19.178;2022-12-07T03:29:34;26.07;;;18.45;;
41101;SDS011;26845;50.190;19.178;2022-12-07T03:32:06;25.75;;;17.60;;
41101;SDS011;26845;50.190;19.178;2022-12-07T03:35:10;25.88;;;17.42;;
41101;SDS011;26845;50.190;19.178;2022-12-07T03:42:58;23.67;;;16.42;;
41101;SDS011;26845;50.190;19.178;2022-12-07T03:45:37;25.52;;;17.17;;
41101;SDS011;26845;50.190;19.178;2022-12-07T03:48:20;25.27;;;16.85;;
41101;SDS011;26845;50.190;19.178;2022-12-07T03:50:56;24.87;;;16.77;;
41101;SDS011;26845;50.190;19.178;2022-12-07T03:53:29;21.73;;;15.40;;
41101;SDS011;26845;50.190;19.178;2022-12-07T03:56:10;22.22;;;15.75;;
41101;SDS011;26845;50.190;19.178;2022-12-07T03:58:38;24.57;;;16.35;;
41101;SDS011;26845;50.190;19.178;2022-12-07T04:01:06;21.73;;;14.45;;
41101;SDS011;26845;50.190;19.178;2022-12-07T04:03:33;19.52;;;13.58;;
41101;SDS011;26845;50.190;19.178;2022-12-07T04:05:59;20.60;;;14.28;;
41101;SDS011;26845;50.190;19.178;2022-12-07T04:08:27;17.42;;;12.70;;
41101;SDS011;26845;50.190;19.178;2022-12-07T04:10:54;20.68;;;13.48;;
41101;SDS011;26845;50.190;19.178;2022-12-07T04:13:20;19.65;;;12.40;;
41101;SDS011;26845;50.190;19.178;2022-12-07T04:15:47;17.80;;;11.93;;
41101;SDS011;26845;50.190;19.178;2022-12-07T04:18:14;17.48;;;11.70;;
41101;SDS011;26845;50.190;19.178;2022-12-07T04:20:40;18.62;;;11.75;;
41101;SDS011;26845;50.190;19.178;2022-12-07T04:23:07;17.57;;;11.48;;
41101;SDS011;26845;50.190;19.178;2022-12-07T04:25:34;17.60;;;11.50;;
41101;SDS011;26845;50.190;19.178;2022-12-07T04:28:00;18.98;;;12.18;;
41101;SDS011;26845;50.190;19.178;2022-12-07T04:30:27;19.00;;;11.53;;
41101;SDS011;26845;50.190;19.178;2022-12-07T04:32:53;19.42;;;11.38;;
41101;SDS011;26845;50.190;19.178;2022-12-07T04:35:20;17.67;;;11.83;;
41101;SDS011;26845;50.190;19.178;2022-12-07T04:37:47;20.37;;;12.98;;
41101;SDS011;26845;50.190;19.178;2022-12-07T04:40:13;21.12;;;12.50;;
41101;SDS011;26845;50.190;19.178;2022-12-07T04:42:40;20.05;;;12.20;;
41101;SDS011;26845;50.190;19.178;2022-12-07T04:45:07;18.02;;;12.55;;
41101;SDS011;26845;50.190;19.178;2022-12-07T04:47:35;20.05;;;12.93;;
41101;SDS011;26845;50.190;19.178;2022-12-07T04:50:02;20.55;;;12.70;;
41101;SDS011;26845;50.190;19.178;2022-12-07T04:52:29;23.90;;;13.15;;
41101;SDS011;26845;50.190;19.178;2022-12-07T04:54:56;27.17;;;15.85;;
41101;SDS011;26845;50.190;19.178;2022-12-07T04:57:22;26.60;;;16.45;;
41101;SDS011;26845;50.190;19.178;2022-12-07T04:59:49;23.83;;;15.15;;
41101;SDS011;26845;50.190;19.178;2022-12-07T05:02:16;32.08;;;18.75;;
41101;SDS011;26845;50.190;19.178;2022-12-07T05:04:43;34.53;;;18.12;;
41101;SDS011;26845;50.190;19.178;2022-12-07T05:07:09;31.68;;;18.73;;
41101;SDS011;26845;50.190;19.178;2022-12-07T05:09:36;32.20;;;18.65;;
41101;SDS011;26845;50.190;19.178;2022-12-07T05:12:04;30.00;;;17.57;;
41101;SDS011;26845;50.190;19.178;2022-12-07T05:14:31;30.50;;;16.65;;
41101;SDS011;26845;50.190;19.178;2022-12-07T05:16:58;31.00;;;17.82;;
41101;SDS011;26845;50.190;19.178;2022-12-07T05:19:24;32.33;;;17.27;;
41101;SDS011;26845;50.190;19.178;2022-12-07T05:21:52;27.93;;;16.95;;
41101;SDS011;26845;50.190;19.178;2022-12-07T05:24:19;29.27;;;16.97;;
41101;SDS011;26845;50.190;19.178;2022-12-07T05:26:45;29.65;;;16.90;;
41101;SDS011;26845;50.190;19.178;2022-12-07T05:29:13;30.88;;;17.87;;
41101;SDS011;26845;50.190;19.178;2022-12-07T05:31:42;33.55;;;19.35;;
41101;SDS011;26845;50.190;19.178;2022-12-07T05:34:10;34.10;;;18.90;;
41101;SDS011;26845;50.190;19.178;2022-12-07T05:36:37;31.48;;;17.90;;
41101;SDS011;26845;50.190;19.178;2022-12-07T05:39:03;27.10;;;16.00;;
41101;SDS011;26845;50.190;19.178;2022-12-07T05:41:30;26.05;;;14.78;;
41101;SDS011;26845;50.190;19.178;2022-12-07T05:44:16;25.23;;;14.87;;
41101;SDS011;26845;50.190;19.178;2022-12-07T05:46:42;22.15;;;13.50;;
41101;SDS011;26845;50.190;19.178;2022-12-07T05:49:09;24.12;;;13.95;;
41101;SDS011;26845;50.190;19.178;2022-12-07T05:51:36;23.70;;;13.90;;
41101;SDS011;26845;50.190;19.178;2022-12-07T05:54:02;27.90;;;14.05;;
41101;SDS011;26845;50.190;19.178;2022-12-07T05:56:29;24.63;;;15.15;;
41101;SDS011;26845;50.190;19.178;2022-12-07T05:58:56;25.02;;;14.55;;
41101;SDS011;26845;50.190;19.178;2022-12-07T06:01:41;22.98;;;13.18;;
41101;SDS011;26845;50.190;19.178;2022-12-07T06:04:08;24.47;;;15.05;;
41101;SDS011;26845;50.190;19.178;2022-12-07T06:06:35;25.40;;;13.90;;
41101;SDS011;26845;50.190;19.178;2022-12-07T06:09:02;24.72;;;14.80;;
41101;SDS011;26845;50.190;19.178;2022-12-07T06:11:29;27.60;;;15.30;;
41101;SDS011;26845;50.190;19.178;2022-12-07T06:14:14;26.87;;;15.20;;
41101;SDS011;26845;50.190;19.178;2022-12-07T06:16:41;23.70;;;14.75;;
41101;SDS011;26845;50.190;19.178;2022-12-07T06:19:08;27.82;;;15.25;;
41101;SDS011;26845;50.190;19.178;2022-12-07T06:21:35;30.52;;;17.00;;
41101;SDS011;26845;50.190;19.178;2022-12-07T06:24:02;31.65;;;18.30;;
41101;SDS011;26845;50.190;19.178;2022-12-07T06:26:28;36.50;;;20.43;;
41101;SDS011;26845;50.190;19.178;2022-12-07T06:28:55;35.85;;;20.32;;
41101;SDS011;26845;50.190;19.178;2022-12-07T06:31:22;35.03;;;20.23;;
41101;SDS011;26845;50.190;19.178;2022-12-07T06:33:48;34.90;;;20.88;;
41101;SDS011;26845;50.190;19.178;2022-12-07T06:36:15;33.25;;;19.92;;
41101;SDS011;26845;50.190;19.178;2022-12-07T06:38:44;36.03;;;20.68;;
41101;SDS011;26845;50.190;19.178;2022-12-07T06:41:13;37.70;;;20.52;;
41101;SDS011;26845;50.190;19.178;2022-12-07T06:43:39;34.40;;;19.98;;
41101;SDS011;26845;50.190;19.178;2022-12-07T06:46:06;34.50;;;18.27;;
41101;SDS011;26845;50.190;19.178;2022-12-07T06:48:33;35.33;;;20.65;;
41101;SDS011;26845;50.190;19.178;2022-12-07T06:51:00;35.20;;;19.90;;
41101;SDS011;26845;50.190;19.178;2022-12-07T06:53:26;41.25;;;23.10;;
41101;SDS011;26845;50.190;19.178;2022-12-07T06:55:53;41.33;;;23.12;;
41101;SDS011;26845;50.190;19.178;2022-12-07T06:58:20;41.28;;;22.20;;
41101;SDS011;26845;50.190;19.178;2022-12-07T07:00:47;38.30;;;21.62;;
41101;SDS011;26845;50.190;19.178;2022-12-07T07:03:16;32.33;;;17.85;;
41101;SDS011;26845;50.190;19.178;2022-12-07T07:05:43;28.83;;;17.25;;
41101;SDS011;26845;50.190;19.178;2022-12-07T07:08:11;29.00;;;15.83;;
41101;SDS011;26845;50.190;19.178;2022-12-07T07:10:38;26.02;;;16.35;;
41101;SDS011;26845;50.190;19.178;2022-12-07T07:13:06;31.35;;;16.00;;
41101;SDS011;26845;50.190;19.178;2022-12-07T07:15:34;31.55;;;16.25;;
41101;SDS011;26845;50.190;19.178;2022-12-07T07:18:03;33.65;;;17.10;;
41101;SDS011;26845;50.190;19.178;2022-12-07T07:20:29;29.25;;;16.90;;
41101;SDS011;26845;50.190;19.178;2022-12-07T07:22:56;26.93;;;15.72;;
41101;SDS011;26845;50.190;19.178;2022-12-07T07:25:23;30.08;;;15.23;;
41101;SDS011;26845;50.190;19.178;2022-12-07T07:27:49;26.55;;;14.73;;
41101;SDS011;26845;50.190;19.178;2022-12-07T07:30:16;22.80;;;12.65;;
41101;SDS011;26845;50.190;19.178;2022-12-07T07:32:43;22.37;;;12.03;;
41101;SDS011;26845;50.190;19.178;2022-12-07T07:35:09;25.68;;;14.20;;
41101;SDS011;26845;50.190;19.178;2022-12-07T07:37:36;19.57;;;12.23;;
41101;SDS011;26845;50.190;19.178;2022-12-07T07:40:03;17.17;;;11.08;;
41101;SDS011;26845;50.190;19.178;2022-12-07T07:42:31;18.98;;;12.25;;
41101;SDS011;26845;50.190;19.178;2022-12-07T07:44:58;21.65;;;12.25;;
41101;SDS011;26845;50.190;19.178;2022-12-07T07:47:25;17.87;;;11.88;;
41101;SDS011;26845;50.190;19.178;2022-12-07T07:49:51;19.00;;;12.15;;
41101;SDS011;26845;50.190;19.178;2022-12-07T07:52:18;18.07;;;11.50;;
41101;SDS011;26845;50.190;19.178;2022-12-07T07:54:46;17.10;;;10.85;;
41101;SDS011;26845;50.190;19.178;2022-12-07T07:57:13;18.98;;;10.32;;
41101;SDS011;26845;50.190;19.178;2022-12-07T07:59:43;18.65;;;11.15;;
41101;SDS011;26845;50.190;19.178;2022-12-07T08:02:13;18.73;;;11.22;;
41101;SDS011;26845;50.190;19.178;2022-12-07T08:04:41;18.65;;;11.43;;
41101;SDS011;26845;50.190;19.178;2022-12-07T08:07:08;17.90;;;12.10;;
41101;SDS011;26845;50.190;19.178;2022-12-07T08:09:37;26.10;;;15.50;;
41101;SDS011;26845;50.190;19.178;2022-12-07T08:12:05;25.25;;;14.63;;
41101;SDS011;26845;50.190;19.178;2022-12-07T08:14:32;19.05;;;12.78;;
41101;SDS011;26845;50.190;19.178;2022-12-07T08:17:00;21.15;;;12.28;;
41101;SDS011;26845;50.190;19.178;2022-12-07T08:19:27;21.55;;;13.48;;
41101;SDS011;26845;50.190;19.178;2022-12-07T08:21:54;17.98;;;11.93;;
41101;SDS011;26845;50.190;19.178;2022-12-07T08:24:22;16.15;;;10.63;;
41101;SDS011;26845;50.190;19.178;2022-12-07T08:26:51;18.77;;;12.07;;
41101;SDS011;26845;50.190;19.178;2022-12-07T08:29:18;21.77;;;9.43;;
41101;SDS011;26845;50.190;19.178;2022-12-07T08:31:44;22.70;;;12.82;;
41101;SDS011;26845;50.190;19.178;2022-12-07T08:34:11;30.20;;;15.85;;
41101;SDS011;26845;50.190;19.178;2022-12-07T08:36:39;25.10;;;14.33;;
41101;SDS011;26845;50.190;19.178;2022-12-07T08:39:06;22.05;;;11.78;;
41101;SDS011;26845;50.190;19.178;2022-12-07T08:41:33;22.75;;;12.65;;
41101;SDS011;26845;50.190;19.178;2022-12-07T08:43:59;20.82;;;10.98;;
41101;SDS011;26845;50.190;19.178;2022-12-07T08:46:28;18.85;;;11.80;;
41101;SDS011;26845;50.190;19.178;2022-12-07T08:49:10;20.15;;;11.88;;
41101;SDS011;26845;50.190;19.178;2022-12-07T08:51:41;20.00;;;11.70;;
41101;SDS011;26845;50.190;19.178;2022-12-07T08:54:10;20.90;;;13.35;;
41101;SDS011;26845;50.190;19.178;2022-12-07T08:56:41;20.30;;;12.40;;
41101;SDS011;26845;50.190;19.178;2022-12-07T08:59:08;22.13;;;12.93;;
41101;SDS011;26845;50.190;19.178;2022-12-07T09:01:36;24.00;;;12.58;;
41101;SDS011;26845;50.190;19.178;2022-12-07T09:04:06;22.75;;;14.60;;
41101;SDS011;26845;50.190;19.178;2022-12-07T09:06:33;24.52;;;14.18;;
41101;SDS011;26845;50.190;19.178;2022-12-07T09:09:01;23.50;;;12.20;;
41101;SDS011;26845;50.190;19.178;2022-12-07T09:11:28;24.65;;;15.23;;
41101;SDS011;26845;50.190;19.178;2022-12-07T09:13:56;26.12;;;12.93;;
41101;SDS011;26845;50.190;19.178;2022-12-07T09:16:22;28.25;;;15.40;;
41101;SDS011;26845;50.190;19.178;2022-12-07T09:18:50;26.45;;;15.40;;
41101;SDS011;26845;50.190;19.178;2022-12-07T09:21:16;25.05;;;15.20;;
41101;SDS011;26845;50.190;19.178;2022-12-07T09:23:43;29.75;;;15.80;;
41101;SDS011;26845;50.190;19.178;2022-12-07T09:26:10;29.55;;;16.15;;
41101;SDS011;26845;50.190;19.178;2022-12-07T09:28:37;29.98;;;17.40;;
41101;SDS011;26845;50.190;19.178;2022-12-07T09:31:05;29.25;;;15.63;;
41101;SDS011;26845;50.190;19.178;2022-12-07T09:33:32;29.67;;;16.17;;
41101;SDS011;26845;50.190;19.178;2022-12-07T09:36:00;28.55;;;15.72;;
41101;SDS011;26845;50.190;19.178;2022-12-07T09:38:27;23.30;;;14.33;;
41101;SDS011;26845;50.190;19.178;2022-12-07T09:40:55;22.27;;;12.82;;
41101;SDS011;26845;50.190;19.178;2022-12-07T09:43:23;18.10;;;12.00;;
41101;SDS011;26845;50.190;19.178;2022-12-07T09:45:53;19.57;;;11.60;;
41101;SDS011;26845;50.190;19.178;2022-12-07T09:48:29;17.82;;;11.15;;
41101;SDS011;26845;50.190;19.178;2022-12-07T09:51:00;18.10;;;11.80;;
41101;SDS011;26845;50.190;19.178;2022-12-07T09:53:32;16.42;;;10.25;;
41101;SDS011;26845;50.190;19.178;2022-12-07T09:56:02;14.10;;;9.70;;
41101;SDS011;26845;50.190;19.178;2022-12-07T09:58:30;16.50;;;11.00;;
41101;SDS011;26845;50.190;19.178;2022-12-07T10:01:00;16.05;;;10.45;;
41101;SDS011;26845;50.190;19.178;2022-12-07T10:03:45;14.33;;;10.15;;
41101;SDS011;26845;50.190;19.178;2022-12-07T10:06:16;13.50;;;9.75;;
41101;SDS011;26845;50.190;19.178;2022-12-07T10:08:44;17.02;;;9.48;;
41101;SDS011;26845;50.190;19.178;2022-12-07T10:11:11;14.47;;;9.18;;
41101;SDS011;26845;50.190;19.178;2022-12-07T10:22:02;12.13;;;8.35;;
41101;SDS011;26845;50.190;19.178;2022-12-07T10:24:41;12.88;;;9.18;;
41101;SDS011;26845;50.190;19.178;2022-12-07T10:27:21;12.82;;;8.20;;
41101;SDS011;26845;50.190;19.178;2022-12-07T10:29:49;11.22;;;8.25;;
41101;SDS011;26845;50.190;19.178;2022-12-07T10:35:15;11.55;;;7.50;;
41101;SDS011;26845;50.190;19.178;2022-12-07T10:37:40;13.13;;;8.08;;
41101;SDS011;26845;50.190;19.178;2022-12-07T10:40:23;9.43;;;7.37;;
41101;SDS011;26845;50.190;19.178;2022-12-07T10:43:01;12.60;;;8.68;;
41101;SDS011;26845;50.190;19.178;2022-12-07T10:45:57;16.27;;;8.48;;
41101;SDS011;26845;50.190;19.178;2022-12-07T10:58:27;17.07;;;9.85;;
41101;SDS011;26845;50.190;19.178;2022-12-07T11:00:31;10.90;;;8.13;;
41101;SDS011;26845;50.190;19.178;2022-12-07T11:03:29;12.53;;;8.73;;
41101;SDS011;26845;50.190;19.178;2022-12-07T11:18:23;10.88;;;7.92;;
41101;SDS011;26845;50.190;19.178;2022-12-07T11:24:10;14.18;;;8.35;;
41101;SDS011;26845;50.190;19.178;2022-12-07T11:29:53;14.45;;;7.45;;
41101;SDS011;26845;50.190;19.178;2022-12-07T11:32:44;13.40;;;7.55;;
41101;SDS011;26845;50.190;19.178;2022-12-07T11:35:36;9.03;;;6.37;;
41101;SDS011;26845;50.190;19.178;2022-12-07T11:41:20;10.20;;;6.87;;
41101;SDS011;26845;50.190;19.178;2022-12-07T11:47:22;8.85;;;5.25;;
41101;SDS011;26845;50.190;19.178;2022-12-07T11:51:45;7.65;;;5.28;;
41101;SDS011;26845;50.190;19.178;2022-12-07T11:54:19;6.35;;;5.35;;
41101;SDS011;26845;50.190;19.178;2022-12-07T11:56:48;8.58;;;4.95;;
41101;SDS011;26845;50.190;19.178;2022-12-07T11:59:18;7.47;;;4.55;;
41101;SDS011;26845;50.190;19.178;2022-12-07T12:07:20;6.78;;;4.40;;
41101;SDS011;26845;50.190;19.178;2022-12-07T12:09:59;7.25;;;4.60;;
41101;SDS011;26845;50.190;19.178;2022-12-07T12:15:42;7.33;;;4.30;;
41101;SDS011;26845;50.190;19.178;2022-12-07T12:21:17;6.47;;;4.53;;
41101;SDS011;26845;50.190;19.178;2022-12-07T12:23:55;7.33;;;4.90;;
41101;SDS011;26845;50.190;19.178;2022-12-07T12:26:35;6.42;;;4.15;;
41101;SDS011;26845;50.190;19.178;2022-12-07T12:29:05;7.83;;;4.50;;
41101;SDS011;26845;50.190;19.178;2022-12-07T12:31:39;7.05;;;5.12;;
41101;SDS011;26845;50.190;19.178;2022-12-07T12:42:50;7.78;;;4.70;;
41101;SDS011;26845;50.190;19.178;2022-12-07T12:45:23;6.53;;;3.70;;
41101;SDS011;26845;50.190;19.178;2022-12-07T12:47:56;7.42;;;4.85;;
41101;SDS011;26845;50.190;19.178;2022-12-07T12:50:27;7.33;;;4.85;;
41101;SDS011;26845;50.190;19.178;2022-12-07T12:53:05;6.92;;;4.78;;
41101;SDS011;26845;50.190;19.178;2022-12-07T13:06:36;6.50;;;4.30;;
41101;SDS011;26845;50.190;19.178;2022-12-07T13:09:04;5.25;;;3.47;;
41101;SDS011;26845;50.190;19.178;2022-12-07T13:11:38;4.75;;;3.87;;
41101;SDS011;26845;50.190;19.178;2022-12-07T13:20:03;6.47;;;4.67;;
41101;SDS011;26845;50.190;19.178;2022-12-07T13:25:12;6.67;;;5.03;;
41101;SDS011;26845;50.190;19.178;2022-12-07T13:27:51;7.17;;;4.70;;
41101;SDS011;26845;50.190;19.178;2022-12-07T13:30:23;6.47;;;4.90;;
41101;SDS011;26845;50.190;19.178;2022-12-07T13:32:54;6.10;;;4.20;;
41101;SDS011;26845;50.190;19.178;2022-12-07T13:35:27;6.62;;;4.47;;
41101;SDS011;26845;50.190;19.178;2022-12-07T13:38:00;8.18;;;4.47;;
41101;SDS011;26845;50.190;19.178;2022-12-07T13:40:34;6.45;;;3.15;;
41101;SDS011;26845;50.190;19.178;2022-12-07T13:43:02;5.62;;;3.98;;
41101;SDS011;26845;50.190;19.178;2022-12-07T13:45:32;5.55;;;3.92;;
41101;SDS011;26845;50.190;19.178;2022-12-07T13:50:58;4.92;;;4.17;;
41101;SDS011;26845;50.190;19.178;2022-12-07T13:53:32;4.95;;;4.20;;
41101;SDS011;26845;50.190;19.178;2022-12-07T13:55:59;6.35;;;4.45;;
41101;SDS011;26845;50.190;19.178;2022-12-07T13:58:31;4.65;;;3.85;;
41101;SDS011;26845;50.190;19.178;2022-12-07T14:01:00;9.20;;;5.15;;
41101;SDS011;26845;50.190;19.178;2022-12-07T14:03:34;6.60;;;4.92;;
41101;SDS011;26845;50.190;19.178;2022-12-07T14:06:06;10.30;;;5.50;;
41101;SDS011;26845;50.190;19.178;2022-12-07T14:11:18;6.53;;;3.50;;
41101;SDS011;26845;50.190;19.178;2022-12-07T14:16:30;5.85;;;4.25;;
41101;SDS011;26845;50.190;19.178;2022-12-07T14:19:02;6.85;;;4.20;;
41101;SDS011;26845;50.190;19.178;2022-12-07T14:21:32;7.58;;;4.87;;
41101;SDS011;26845;50.190;19.178;2022-12-07T14:24:24;6.20;;;4.15;;
41101;SDS011;26845;50.190;19.178;2022-12-07T14:26:45;7.20;;;4.45;;
41101;SDS011;26845;50.190;19.178;2022-12-07T14:32:10;8.53;;;4.65;;
41101;SDS011;26845;50.190;19.178;2022-12-07T14:34:53;7.78;;;4.35;;
41101;SDS011;26845;50.190;19.178;2022-12-07T14:37:30;8.20;;;4.40;;
41101;SDS011;26845;50.190;19.178;2022-12-07T14:39:58;6.17;;;4.05;;
41101;SDS011;26845;50.190;19.178;2022-12-07T14:42:27;7.05;;;4.50;;
41101;SDS011;26845;50.190;19.178;2022-12-07T14:44:58;9.73;;;5.20;;
41101;SDS011;26845;50.190;19.178;2022-12-07T14:47:31;6.12;;;3.67;;
41101;SDS011;26845;50.190;19.178;2022-12-07T14:50:03;10.13;;;6.33;;
41101;SDS011;26845;50.190;19.178;2022-12-07T14:52:37;9.23;;;5.35;;
41101;SDS011;26845;50.190;19.178;2022-12-07T14:55:20;8.75;;;5.65;;
41101;SDS011;26845;50.190;19.178;2022-12-07T14:57:53;8.63;;;5.12;;
41101;SDS011;26845;50.190;19.178;2022-12-07T15:00:21;9.90;;;6.25;;
41101;SDS011;26845;50.190;19.178;2022-12-07T15:02:51;9.38;;;4.22;;
41101;SDS011;26845;50.190;19.178;2022-12-07T15:05:18;9.80;;;5.85;;
41101;SDS011;26845;50.190;19.178;2022-12-07T15:07:46;9.93;;;4.55;;
41101;SDS011;26845;50.190;19.178;2022-12-07T15:10:24;9.10;;;4.42;;
41101;SDS011;26845;50.190;19.178;2022-12-07T15:12:56;9.90;;;4.62;;
41101;SDS011;26845;50.190;19.178;2022-12-07T15:15:30;10.85;;;6.33;;
41101;SDS011;26845;50.190;19.178;2022-12-07T15:17:57;10.20;;;5.95;;
41101;SDS011;26845;50.190;19.178;2022-12-07T15:20:24;9.88;;;5.15;;
41101;SDS011;26845;50.190;19.178;2022-12-07T15:22:51;9.85;;;5.15;;
41101;SDS011;26845;50.190;19.178;2022-12-07T15:25:18;10.93;;;6.95;;
41101;SDS011;26845;50.190;19.178;2022-12-07T15:27:45;12.03;;;6.12;;
41101;SDS011;26845;50.190;19.178;2022-12-07T15:30:12;19.67;;;8.25;;
41101;SDS011;26845;50.190;19.178;2022-12-07T15:32:42;35.85;;;13.22;;
41101;SDS011;26845;50.190;19.178;2022-12-07T15:35:09;25.23;;;9.60;;
41101;SDS011;26845;50.190;19.178;2022-12-07T15:37:36;18.75;;;9.08;;
41101;SDS011;26845;50.190;19.178;2022-12-07T15:40:04;19.05;;;9.20;;
41101;SDS011;26845;50.190;19.178;2022-12-07T15:42:32;18.27;;;8.93;;
41101;SDS011;26845;50.190;19.178;2022-12-07T15:44:59;17.82;;;8.05;;
41101;SDS011;26845;50.190;19.178;2022-12-07T15:47:38;11.53;;;5.70;;
41101;SDS011;26845;50.190;19.178;2022-12-07T15:50:09;14.85;;;8.15;;
41101;SDS011;26845;50.190;19.178;2022-12-07T15:52:39;16.12;;;7.75;;
41101;SDS011;26845;50.190;19.178;2022-12-07T15:55:07;16.25;;;7.30;;
41101;SDS011;26845;50.190;19.178;2022-12-07T15:57:36;17.82;;;8.75;;
41101;SDS011;26845;50.190;19.178;2022-12-07T16:00:06;16.20;;;8.35;;
41101;SDS011;26845;50.190;19.178;2022-12-07T16:02:36;16.52;;;8.95;;
41101;SDS011;26845;50.190;19.178;2022-12-07T16:05:03;16.07;;;8.35;;
41101;SDS011;26845;50.190;19.178;2022-12-07T16:07:30;15.20;;;7.83;;
41101;SDS011;26845;50.190;19.178;2022-12-07T16:09:57;17.70;;;8.53;;
41101;SDS011;26845;50.190;19.178;2022-12-07T16:12:23;18.67;;;8.40;;
41101;SDS011;26845;50.190;19.178;2022-12-07T16:14:51;11.68;;;7.20;;
41101;SDS011;26845;50.190;19.178;2022-12-07T16:17:17;12.82;;;6.40;;
41101;SDS011;26845;50.190;19.178;2022-12-07T16:19:44;11.35;;;6.33;;
41101;SDS011;26845;50.190;19.178;2022-12-07T16:22:11;12.28;;;6.12;;
41101;SDS011;26845;50.190;19.178;2022-12-07T16:24:37;9.98;;;6.20;;
41101;SDS011;26845;50.190;19.178;2022-12-07T16:27:04;11.22;;;5.87;;
41101;SDS011;26845;50.190;19.178;2022-12-07T16:29:31;13.22;;;6.60;;
41101;SDS011;26845;50.190;19.178;2022-12-07T16:31:57;10.60;;;6.12;;
41101;SDS011;26845;50.190;19.178;2022-12-07T16:34:24;14.03;;;6.55;;
41101;SDS011;26845;50.190;19.178;2022-12-07T16:36:50;10.50;;;5.55;;
41101;SDS011;26845;50.190;19.178;2022-12-07T16:39:17;9.05;;;5.65;;
41101;SDS011;26845;50.190;19.178;2022-12-07T16:41:44;11.38;;;6.00;;
41101;SDS011;26845;50.190;19.178;2022-12-07T16:44:11;13.13;;;5.90;;
41101;SDS011;26845;50.190;19.178;2022-12-07T16:46:39;12.23;;;6.42;;
41101;SDS011;26845;50.190;19.178;2022-12-07T16:49:10;11.30;;;6.20;;
41101;SDS011;26845;50.190;19.178;2022-12-07T16:51:38;10.65;;;6.00;;
41101;SDS011;26845;50.190;19.178;2022-12-07T16:54:05;13.08;;;6.15;;
41101;SDS011;26845;50.190;19.178;2022-12-07T16:56:32;11.73;;;6.80;;
41101;SDS011;26845;50.190;19.178;2022-12-07T16:58:58;11.33;;;6.50;;
41101;SDS011;26845;50.190;19.178;2022-12-07T17:01:25;8.03;;;5.40;;
41101;SDS011;26845;50.190;19.178;2022-12-07T17:03:54;13.20;;;7.42;;